createdAt,value
2023-06-17T00:00:48.629Z,14.50
2023-06-17T00:03:15.452Z,14.20
2023-06-17T00:05:42.930Z,14.50
2023-06-17T00:08:09.623Z,14.40
2023-06-17T00:10:36.287Z,14.40
2023-06-17T00:13:03.835Z,14.40
2023-06-17T00:15:34.310Z,14.40
2023-06-17T00:18:02.016Z,14.40
2023-06-17T00:20:30.116Z,14.40
2023-06-17T00:22:56.850Z,14.40
2023-06-17T00:25:23.660Z,14.50
2023-06-17T00:27:50.364Z,14.40
2023-06-17T00:30:16.989Z,14.40
2023-06-17T00:32:43.714Z,14.30
2023-06-17T00:35:10.495Z,14.30
2023-06-17T00:37:37.156Z,14.30
2023-06-17T00:40:08.960Z,14.30
2023-06-17T00:42:36.141Z,14.30
2023-06-17T00:45:03.552Z,14.30
2023-06-17T00:47:31.236Z,14.30
2023-06-17T00:49:58.238Z,14.30
2023-06-17T00:54:58.422Z,14.30
2023-06-17T00:57:25.470Z,14.40
2023-06-17T00:59:52.733Z,14.40
2023-06-17T01:02:20.881Z,14.40
2023-06-17T01:04:47.891Z,14.30
2023-06-17T01:07:24.831Z,14.30
2023-06-17T01:10:23.828Z,14.40
2023-06-17T01:12:51.209Z,14.40
2023-06-17T01:15:18.346Z,14.40
2023-06-17T01:17:47.417Z,14.30
2023-06-17T01:20:16.428Z,14.30
2023-06-17T01:22:46.004Z,14.10
2023-06-17T01:25:14.340Z,14.10
2023-06-17T01:27:42.409Z,14.10
2023-06-17T01:30:09.589Z,14.10
2023-06-17T01:32:36.933Z,14.10
2023-06-17T01:35:07.811Z,14.00
2023-06-17T01:37:49.349Z,14.10
2023-06-17T01:40:20.811Z,14.10
2023-06-17T01:42:49.897Z,14.10
2023-06-17T01:45:17.055Z,14.00
2023-06-17T01:47:44.001Z,13.90
2023-06-17T01:50:11.376Z,13.90
2023-06-17T01:52:38.260Z,13.90
2023-06-17T01:55:05.816Z,13.90
2023-06-17T01:57:32.533Z,14.00
2023-06-17T01:59:59.155Z,14.00
2023-06-17T02:02:25.872Z,14.00
2023-06-17T02:04:52.705Z,14.00
2023-06-17T02:07:19.435Z,14.00
2023-06-17T02:09:46.983Z,14.00
2023-06-17T02:12:14.054Z,14.10
2023-06-17T02:14:40.873Z,14.20
2023-06-17T02:17:09.558Z,14.30
2023-06-17T02:19:36.524Z,14.30
2023-06-17T02:22:03.401Z,14.40
2023-06-17T02:24:30.283Z,14.40
2023-06-17T02:26:57.603Z,14.40
2023-06-17T02:29:25.649Z,14.40
2023-06-17T02:31:52.727Z,14.40
2023-06-17T02:34:20.369Z,14.40
2023-06-17T02:36:47.593Z,14.40
2023-06-17T02:39:14.280Z,14.40
2023-06-17T02:41:40.992Z,14.40
2023-06-17T02:44:07.660Z,14.40
2023-06-17T02:46:34.413Z,14.40
2023-06-17T02:49:01.104Z,14.40
2023-06-17T02:51:29.032Z,14.40
2023-06-17T02:53:55.746Z,14.40
2023-06-17T02:56:22.458Z,14.50
2023-06-17T02:58:49.303Z,14.50
2023-06-17T03:01:17.559Z,14.60
2023-06-17T03:03:44.347Z,14.60
2023-06-17T03:06:11.118Z,14.60
2023-06-17T03:08:40.508Z,14.60
2023-06-17T03:11:07.563Z,14.60
2023-06-17T03:13:34.675Z,14.60
2023-06-17T03:16:02.447Z,14.60
2023-06-17T03:18:29.482Z,14.60
2023-06-17T03:20:56.268Z,14.60
2023-06-17T03:23:23.648Z,14.60
2023-06-17T03:25:51.329Z,14.50
2023-06-17T03:28:18.990Z,14.60
2023-06-17T03:30:46.175Z,14.60
2023-06-17T03:33:14.466Z,14.60
2023-06-17T03:35:41.498Z,14.70
2023-06-17T03:38:09.303Z,14.70
2023-06-17T03:40:36.505Z,14.70
2023-06-17T03:43:03.149Z,14.80
2023-06-17T03:45:31.638Z,14.70
2023-06-17T03:47:59.271Z,14.70
2023-06-17T03:50:27.257Z,14.80
2023-06-17T03:52:53.868Z,14.80
2023-06-17T03:55:20.645Z,14.80
2023-06-17T03:57:47.296Z,14.80
2023-06-17T04:00:16.889Z,14.80
2023-06-17T04:02:48.289Z,14.90
2023-06-17T04:05:16.466Z,14.90
2023-06-17T04:07:43.383Z,14.90
2023-06-17T04:10:10.930Z,15.00
2023-06-17T04:12:38.779Z,15.00
2023-06-17T04:15:07.199Z,15.00
2023-06-17T04:17:34.031Z,15.10
2023-06-17T04:20:09.901Z,15.10
2023-06-17T04:22:37.258Z,15.10
2023-06-17T04:25:09.072Z,15.10
2023-06-17T04:27:37.902Z,15.20
2023-06-17T04:30:09.673Z,15.20
2023-06-17T04:32:39.964Z,15.20
2023-06-17T04:35:07.592Z,15.10
2023-06-17T04:37:35.526Z,15.20
2023-06-17T04:40:03.260Z,15.20
2023-06-17T04:42:34.877Z,15.30
2023-06-17T04:45:02.743Z,15.50
2023-06-17T04:47:29.688Z,15.60
2023-06-17T04:50:00.226Z,15.70
2023-06-17T04:52:30.787Z,15.70
2023-06-17T04:54:57.400Z,15.70
2023-06-17T04:57:24.238Z,15.80
2023-06-17T04:59:51.161Z,15.70
2023-06-17T05:02:17.812Z,15.70
2023-06-17T05:04:44.450Z,15.70
2023-06-17T05:07:11.149Z,15.70
2023-06-17T05:09:37.925Z,15.80
2023-06-17T05:12:04.847Z,15.90
2023-06-17T05:14:31.551Z,15.90
2023-06-17T05:16:58.816Z,16.00
2023-06-17T05:19:25.628Z,16.00
2023-06-17T05:21:52.261Z,16.10
2023-06-17T05:24:19.038Z,16.30
2023-06-17T05:26:45.660Z,16.40
2023-06-17T05:29:12.278Z,16.40
2023-06-17T05:31:38.912Z,16.40
2023-06-17T05:34:05.668Z,16.40
2023-06-17T05:36:32.292Z,16.40
2023-06-17T05:38:58.886Z,16.40
2023-06-17T05:41:25.755Z,16.40
2023-06-17T05:43:52.428Z,16.40
2023-06-17T05:46:19.113Z,16.50
2023-06-17T05:48:45.776Z,16.50
2023-06-17T05:51:12.429Z,16.60
2023-06-17T05:53:39.026Z,16.60
2023-06-17T05:56:10.071Z,16.60
2023-06-17T05:58:37.258Z,16.60
2023-06-17T06:01:04.163Z,16.70
2023-06-17T06:03:30.833Z,16.70
2023-06-17T06:06:00.959Z,16.70
2023-06-17T06:08:27.800Z,16.80
2023-06-17T06:10:54.700Z,18.40
2023-06-17T06:13:21.481Z,16.70
2023-06-17T06:15:48.355Z,16.50
2023-06-17T06:18:15.644Z,16.60
2023-06-17T06:20:46.290Z,16.60
2023-06-17T06:23:12.981Z,16.50
2023-06-17T06:25:39.791Z,16.40
2023-06-17T06:28:07.002Z,16.70
2023-06-17T06:30:33.681Z,16.80
2023-06-17T06:33:00.601Z,16.80
2023-06-17T06:35:27.328Z,17.00
2023-06-17T06:37:53.951Z,17.00
2023-06-17T06:40:21.058Z,17.10
2023-06-17T06:42:47.979Z,17.20
2023-06-17T06:45:14.812Z,17.20
2023-06-17T06:47:41.547Z,17.30
2023-06-17T06:50:08.629Z,17.40
2023-06-17T06:52:35.623Z,17.60
2023-06-17T06:55:02.266Z,17.70
2023-06-17T06:57:28.892Z,17.70
2023-06-17T06:59:56.182Z,17.70
2023-06-17T07:02:25.969Z,17.70
2023-06-17T07:04:53.307Z,17.60
2023-06-17T07:07:20.084Z,17.50
2023-06-17T07:09:46.706Z,17.60
2023-06-17T07:12:13.502Z,17.50
2023-06-17T07:14:40.259Z,17.50
2023-06-17T07:17:07.087Z,17.40
2023-06-17T07:19:33.816Z,17.40
2023-06-17T07:22:00.597Z,17.50
2023-06-17T07:24:27.296Z,17.50
2023-06-17T07:26:54.009Z,17.40
2023-06-17T07:29:21.636Z,17.50
2023-06-17T07:31:48.368Z,17.50
2023-06-17T07:34:15.677Z,17.50
2023-06-17T07:36:42.385Z,17.60
2023-06-17T07:39:09.209Z,17.90
2023-06-17T07:41:35.992Z,18.10
2023-06-17T07:44:02.700Z,18.30
2023-06-17T07:46:29.382Z,18.30
2023-06-17T07:48:56.041Z,18.30
2023-06-17T07:51:22.736Z,18.20
2023-06-17T07:53:49.331Z,18.20
2023-06-17T07:56:15.929Z,18.20
2023-06-17T07:58:44.352Z,18.20
2023-06-17T08:01:11.204Z,18.10
2023-06-17T08:03:37.990Z,18.10
2023-06-17T08:06:04.783Z,18.10
2023-06-17T08:08:31.425Z,18.10
2023-06-17T08:10:58.056Z,18.20
2023-06-17T08:13:24.672Z,18.40
2023-06-17T08:15:52.812Z,18.50
2023-06-17T08:18:19.514Z,18.70
2023-06-17T08:20:46.129Z,18.80
2023-06-17T08:23:12.767Z,19.10
2023-06-17T08:25:40.348Z,19.30
2023-06-17T08:28:07.339Z,19.30
2023-06-17T08:30:34.188Z,19.30
2023-06-17T08:33:00.832Z,19.30
2023-06-17T08:35:27.592Z,19.30
2023-06-17T08:37:54.368Z,19.30
2023-06-17T08:40:23.940Z,19.20
2023-06-17T08:43:02.277Z,19.20
2023-06-17T08:45:29.974Z,19.20
2023-06-17T08:47:58.164Z,19.20
2023-06-17T08:50:27.760Z,19.20
2023-06-17T08:52:55.431Z,19.10
2023-06-17T08:55:22.254Z,19.10
2023-06-17T08:57:52.178Z,19.00
2023-06-17T09:00:19.573Z,18.90
2023-06-17T09:02:47.013Z,18.90
2023-06-17T09:05:13.988Z,19.10
2023-06-17T09:07:42.515Z,19.20
2023-06-17T09:10:12.201Z,19.30
2023-06-17T09:12:39.944Z,19.50
2023-06-17T09:15:08.521Z,19.50
2023-06-17T09:17:38.022Z,19.50
2023-06-17T09:20:16.091Z,19.60
2023-06-17T09:22:47.661Z,19.80
2023-06-17T09:25:16.641Z,19.90
2023-06-17T09:28:05.358Z,20.00
2023-06-17T09:30:38.280Z,20.10
2023-06-17T09:33:18.863Z,20.20
2023-06-17T09:35:46.047Z,20.20
2023-06-17T09:38:16.873Z,20.10
2023-06-17T09:40:43.738Z,20.40
2023-06-17T09:43:26.959Z,20.30
2023-06-17T09:46:01.034Z,20.10
2023-06-17T09:48:38.398Z,20.00
2023-06-17T09:51:10.384Z,19.80
2023-06-17T09:53:38.548Z,19.50
2023-06-17T09:56:09.947Z,19.30
2023-06-17T09:58:37.114Z,19.00
2023-06-17T10:01:06.907Z,19.10
2023-06-17T10:03:34.893Z,19.10
2023-06-17T10:06:12.641Z,19.30
2023-06-17T10:08:44.473Z,19.50
2023-06-17T10:11:14.268Z,19.70
2023-06-17T10:13:42.838Z,19.90
2023-06-17T10:16:15.599Z,20.00
2023-06-17T10:18:45.769Z,20.30
2023-06-17T10:21:14.269Z,20.50
2023-06-17T10:23:43.240Z,20.60
2023-06-17T10:26:13.099Z,20.80
2023-06-17T10:29:11.549Z,21.00
2023-06-17T10:31:40.613Z,21.20
2023-06-17T10:34:16.163Z,21.60
2023-06-17T10:36:43.060Z,21.60
2023-06-17T10:39:11.996Z,21.70
2023-06-17T10:41:41.322Z,21.80
2023-06-17T10:44:36.260Z,21.80
2023-06-17T10:47:15.328Z,21.80
2023-06-17T10:49:43.278Z,21.60
2023-06-17T10:52:14.894Z,21.70
2023-06-17T10:54:59.742Z,21.90
2023-06-17T10:57:34.372Z,22.20
2023-06-17T11:00:07.320Z,22.40
2023-06-17T11:02:33.978Z,22.60
2023-06-17T11:05:02.726Z,22.70
2023-06-17T11:07:29.941Z,22.80
2023-06-17T11:09:57.093Z,23.00
2023-06-17T11:12:23.706Z,23.30
2023-06-17T11:14:50.409Z,23.40
2023-06-17T11:17:17.129Z,23.70
2023-06-17T11:19:44.283Z,23.60
2023-06-17T11:22:10.980Z,23.40
2023-06-17T11:24:37.751Z,22.70
2023-06-17T11:27:11.789Z,21.70
2023-06-17T11:29:42.141Z,21.40
2023-06-17T11:32:09.291Z,20.80
2023-06-17T11:34:36.123Z,20.30
2023-06-17T11:37:07.536Z,20.00
2023-06-17T11:39:38.979Z,19.80
2023-06-17T11:42:06.903Z,19.60
2023-06-17T11:44:35.642Z,19.50
2023-06-17T11:47:10.453Z,19.40
2023-06-17T11:49:41.856Z,19.40
2023-06-17T11:52:10.753Z,19.50
2023-06-17T11:54:46.689Z,19.30
2023-06-17T11:57:18.745Z,21.40
2023-06-17T11:59:45.748Z,19.70
2023-06-17T12:02:12.740Z,19.80
2023-06-17T12:04:39.947Z,19.30
2023-06-17T12:07:07.916Z,20.30
2023-06-17T12:09:54.802Z,19.40
2023-06-17T12:12:35.602Z,19.60
2023-06-17T12:17:47.709Z,19.80
2023-06-17T12:20:21.730Z,19.50
2023-06-17T12:22:50.489Z,19.50
2023-06-17T12:25:17.366Z,19.60
2023-06-17T12:27:44.551Z,19.50
2023-06-17T12:30:12.321Z,19.40
2023-06-17T12:32:42.148Z,19.30
2023-06-17T12:35:11.200Z,19.40
2023-06-17T12:37:40.958Z,19.40
2023-06-17T12:40:08.641Z,19.40
2023-06-17T12:42:35.870Z,19.40
2023-06-17T12:45:03.153Z,19.30
2023-06-17T12:47:29.970Z,19.30
2023-06-17T12:49:56.615Z,19.30
2023-06-17T12:52:23.280Z,19.20
2023-06-17T12:54:58.862Z,19.10
2023-06-17T12:57:26.619Z,19.00
2023-06-17T12:59:53.599Z,18.80
2023-06-17T13:02:20.367Z,18.80
2023-06-17T13:04:47.080Z,18.70
2023-06-17T13:07:13.798Z,18.60
2023-06-17T13:09:40.609Z,18.60
2023-06-17T13:12:07.589Z,18.50
2023-06-17T13:14:35.467Z,18.50
2023-06-17T13:17:02.292Z,18.50
2023-06-17T13:19:28.964Z,18.70
2023-06-17T13:21:56.032Z,18.80
2023-06-17T13:24:22.677Z,19.00
2023-06-17T13:26:49.320Z,19.20
2023-06-17T13:29:15.973Z,19.40
2023-06-17T13:31:42.650Z,19.60
2023-06-17T13:34:09.839Z,19.70
2023-06-17T13:36:37.206Z,19.80
2023-06-17T13:39:04.063Z,19.90
2023-06-17T13:41:31.849Z,19.90
2023-06-17T13:43:58.534Z,19.90
2023-06-17T13:46:25.203Z,19.80
2023-06-17T13:48:52.078Z,19.80
2023-06-17T13:51:19.380Z,19.60
2023-06-17T13:53:46.106Z,19.70
2023-06-17T13:56:12.954Z,19.70
2023-06-17T13:58:39.730Z,19.60
2023-06-17T14:01:06.399Z,19.60
2023-06-17T14:03:33.180Z,19.60
2023-06-17T14:05:59.924Z,19.70
2023-06-17T14:08:26.577Z,19.70
2023-06-17T14:10:53.241Z,19.70
2023-06-17T14:13:19.877Z,19.70
2023-06-17T14:15:46.592Z,19.70
2023-06-17T14:18:13.184Z,19.70
2023-06-17T14:20:39.950Z,19.60
2023-06-17T14:23:08.706Z,19.70
2023-06-17T14:25:35.808Z,19.80
2023-06-17T14:28:02.736Z,19.90
2023-06-17T14:30:29.377Z,19.90
2023-06-17T14:32:56.070Z,19.90
2023-06-17T14:35:22.771Z,20.00
2023-06-17T14:37:50.112Z,20.00
2023-06-17T14:40:17.565Z,20.00
2023-06-17T14:42:44.315Z,20.00
2023-06-17T14:45:13.352Z,20.00
2023-06-17T14:47:40.937Z,20.20
2023-06-17T14:50:09.442Z,20.30
2023-06-17T14:52:36.082Z,20.50
2023-06-17T14:55:03.027Z,20.80
2023-06-17T14:57:33.298Z,20.90
2023-06-17T15:00:00.705Z,21.10
2023-06-17T15:02:50.566Z,21.30
2023-06-17T15:05:17.727Z,21.30
2023-06-17T15:07:44.679Z,21.50
2023-06-17T15:10:11.548Z,21.50
2023-06-17T15:12:42.709Z,21.30
2023-06-17T15:15:11.443Z,21.60
2023-06-17T15:17:38.468Z,20.40
2023-06-17T15:20:06.062Z,21.70
2023-06-17T15:22:32.769Z,21.70
2023-06-17T15:24:59.525Z,21.70
2023-06-17T15:27:26.183Z,21.70
2023-06-17T15:29:52.791Z,21.70
2023-06-17T15:32:22.010Z,21.70
2023-06-17T15:34:49.769Z,21.70
2023-06-17T15:37:16.418Z,21.70
2023-06-17T15:39:43.105Z,21.70
2023-06-17T15:42:09.921Z,21.70
2023-06-17T15:44:36.567Z,21.60
2023-06-17T15:47:03.384Z,21.20
2023-06-17T15:49:30.049Z,21.40
2023-06-17T15:51:56.677Z,21.40
2023-06-17T15:54:26.519Z,21.20
2023-06-17T15:56:53.427Z,21.10
2023-06-17T15:59:20.432Z,20.90
2023-06-17T16:01:47.609Z,20.70
2023-06-17T16:04:32.249Z,20.60
2023-06-17T16:07:00.102Z,20.50
2023-06-17T16:09:27.100Z,20.40
2023-06-17T16:11:53.767Z,20.40
2023-06-17T16:14:20.421Z,20.40
2023-06-17T16:16:47.076Z,20.40
2023-06-17T16:19:13.732Z,20.30
2023-06-17T16:21:40.472Z,20.20
2023-06-17T16:24:07.540Z,20.20
2023-06-17T16:26:34.348Z,20.20
2023-06-17T16:29:00.992Z,20.10
2023-06-17T16:31:27.639Z,20.10
2023-06-17T16:33:55.097Z,20.10
2023-06-17T16:36:22.282Z,20.10
2023-06-17T16:38:48.921Z,20.10
2023-06-17T16:41:15.811Z,20.00
2023-06-17T16:43:42.523Z,20.00
2023-06-17T16:46:09.149Z,20.00
2023-06-17T16:48:35.790Z,20.00
2023-06-17T16:51:06.776Z,20.10
2023-06-17T16:53:34.015Z,20.20
2023-06-17T16:56:01.724Z,20.30
2023-06-17T16:58:31.419Z,20.40
2023-06-17T17:00:58.076Z,20.40
2023-06-17T17:03:24.844Z,20.50
2023-06-17T17:05:51.691Z,20.50
2023-06-17T17:08:18.404Z,20.60
2023-06-17T17:10:45.038Z,20.60
2023-06-17T17:13:11.644Z,20.60
2023-06-17T17:15:38.311Z,20.60
2023-06-17T17:18:05.308Z,20.60
2023-06-17T17:20:32.266Z,20.60
2023-06-17T17:22:58.937Z,20.60
2023-06-17T17:25:25.650Z,20.60
2023-06-17T17:27:52.306Z,20.50
2023-06-17T17:30:19.365Z,20.60
2023-06-17T17:32:48.284Z,20.60
2023-06-17T17:35:14.915Z,20.60
2023-06-17T17:37:42.277Z,20.70
2023-06-17T17:40:09.438Z,20.70
2023-06-17T17:42:36.122Z,20.70
2023-06-17T17:45:02.833Z,20.60
2023-06-17T17:47:29.531Z,20.70
2023-06-17T17:49:56.297Z,20.60
2023-06-17T17:52:23.374Z,20.50
2023-06-17T17:55:01.096Z,20.20
2023-06-17T17:57:28.772Z,20.40
2023-06-17T17:59:55.547Z,20.30
2023-06-17T18:02:22.715Z,20.20
2023-06-17T18:04:49.483Z,20.10
2023-06-17T18:07:16.156Z,20.10
2023-06-17T18:09:42.980Z,20.00
2023-06-17T18:12:09.963Z,20.00
2023-06-17T18:14:36.637Z,19.80
2023-06-17T18:17:04.159Z,19.90
2023-06-17T18:19:30.940Z,19.80
2023-06-17T18:21:57.620Z,19.80
2023-06-17T18:24:24.271Z,19.80
2023-06-17T18:26:51.063Z,19.80
2023-06-17T18:29:18.445Z,19.80
2023-06-17T18:31:45.088Z,19.80
2023-06-17T18:34:11.709Z,19.60
2023-06-17T18:36:38.412Z,19.50
2023-06-17T18:39:05.069Z,19.40
2023-06-17T18:41:33.990Z,19.30
2023-06-17T18:44:00.870Z,19.20
2023-06-17T18:46:27.646Z,19.20
2023-06-17T18:48:55.093Z,19.10
2023-06-17T18:51:21.720Z,19.00
2023-06-17T18:53:48.423Z,18.70
2023-06-17T18:56:15.027Z,18.70
2023-06-17T18:58:41.642Z,18.60
2023-06-17T19:01:08.299Z,18.50
2023-06-17T19:03:35.827Z,18.50
2023-06-17T19:06:02.513Z,18.50
2023-06-17T19:08:29.155Z,18.40
2023-06-17T19:10:56.216Z,18.30
2023-06-17T19:13:22.911Z,18.30
2023-06-17T19:15:49.577Z,18.20
2023-06-17T19:18:16.347Z,18.20
2023-06-17T19:20:42.996Z,18.10
2023-06-17T19:23:10.005Z,18.10
2023-06-17T19:25:36.725Z,18.10
2023-06-17T19:28:03.914Z,18.10
2023-06-17T19:30:30.522Z,18.10
2023-06-17T19:32:57.340Z,18.00
2023-06-17T19:35:24.030Z,17.90
2023-06-17T19:37:50.643Z,17.80
2023-06-17T19:40:19.877Z,17.70
2023-06-17T19:42:46.772Z,17.70
2023-06-17T19:45:13.632Z,17.50
2023-06-17T19:47:40.298Z,17.50
2023-06-17T19:50:07.442Z,17.40
2023-06-17T19:52:34.180Z,17.40
2023-06-17T19:55:00.925Z,17.40
2023-06-17T19:57:27.504Z,17.30
2023-06-17T19:59:54.231Z,17.30
2023-06-17T20:02:20.988Z,17.40
2023-06-17T20:04:47.657Z,17.40
2023-06-17T20:07:14.300Z,17.40
2023-06-17T20:09:40.912Z,17.30
2023-06-17T20:12:07.898Z,17.30
2023-06-17T20:14:34.542Z,17.20
2023-06-17T20:17:02.106Z,17.20
2023-06-17T20:19:28.774Z,17.20
2023-06-17T20:21:55.371Z,17.10
2023-06-17T20:24:22.622Z,17.00
2023-06-17T20:26:49.442Z,17.00
2023-06-17T20:29:16.077Z,16.90
2023-06-17T20:31:42.710Z,16.10
2023-06-17T20:34:12.339Z,16.90
2023-06-17T20:36:38.940Z,16.80
2023-06-17T20:39:06.956Z,16.80
2023-06-17T20:41:33.610Z,16.80
2023-06-17T20:44:00.205Z,16.80
2023-06-17T20:46:29.044Z,16.70
2023-06-17T20:48:56.020Z,16.70
2023-06-17T20:51:23.169Z,16.70
2023-06-17T20:53:49.818Z,16.60
2023-06-17T20:56:16.460Z,16.60
2023-06-17T20:58:43.067Z,16.60
2023-06-17T21:01:14.786Z,16.50
2023-06-17T21:03:41.445Z,16.50
2023-06-17T21:06:08.077Z,16.50
2023-06-17T21:08:34.695Z,16.40
2023-06-17T21:11:01.346Z,16.40
2023-06-17T21:13:27.907Z,16.40
2023-06-17T21:15:54.582Z,16.40
2023-06-17T21:18:21.532Z,16.40
2023-06-17T21:20:48.230Z,16.40
2023-06-17T21:23:15.393Z,16.40
2023-06-17T21:25:42.105Z,16.30
2023-06-17T21:28:08.726Z,16.30
2023-06-17T21:30:35.369Z,16.30
2023-06-17T21:33:02.017Z,16.30
2023-06-17T21:35:28.697Z,16.30
2023-06-17T21:37:55.373Z,16.30
2023-06-17T21:40:22.356Z,16.20
2023-06-17T21:42:49.355Z,16.10
2023-06-17T21:45:16.770Z,16.00
2023-06-17T21:47:43.519Z,16.00
2023-06-17T21:50:10.699Z,15.80
2023-06-17T21:52:37.349Z,16.00
2023-06-17T21:55:04.271Z,14.30
2023-06-17T21:57:30.885Z,15.90
2023-06-17T21:59:57.596Z,15.80
2023-06-17T22:02:24.610Z,15.80
2023-06-17T22:04:52.903Z,15.70
2023-06-17T22:07:19.666Z,15.80
2023-06-17T22:09:46.266Z,15.70
2023-06-17T22:12:12.887Z,15.70
2023-06-17T22:14:39.475Z,15.70
2023-06-17T22:17:06.389Z,15.70
2023-06-17T22:19:33.018Z,15.60
2023-06-17T22:21:59.969Z,15.60
2023-06-17T22:24:26.673Z,15.70
2023-06-17T22:26:53.297Z,15.70
2023-06-17T22:29:19.921Z,15.70
2023-06-17T22:31:46.553Z,15.70
2023-06-17T22:34:13.166Z,15.60
2023-06-17T22:36:39.755Z,15.60
2023-06-17T22:39:06.334Z,15.50
2023-06-17T22:41:32.938Z,15.40
2023-06-17T22:44:00.272Z,15.30
2023-06-17T22:46:27.084Z,15.30
2023-06-17T22:48:53.973Z,15.30
2023-06-17T22:51:20.947Z,15.30
2023-06-17T22:53:49.548Z,15.40
2023-06-17T22:56:17.238Z,15.40
2023-06-17T22:58:45.054Z,15.40
2023-06-17T23:01:11.932Z,15.40
2023-06-17T23:03:38.611Z,15.30
2023-06-17T23:06:05.461Z,15.40
2023-06-17T23:08:32.050Z,15.30
2023-06-17T23:10:58.651Z,15.40
2023-06-17T23:13:25.285Z,15.10
2023-06-17T23:15:51.875Z,15.30
2023-06-17T23:18:18.506Z,15.30
2023-06-17T23:20:46.976Z,15.20
2023-06-17T23:23:13.717Z,15.20
2023-06-17T23:25:40.832Z,15.20
2023-06-17T23:28:09.584Z,15.20
2023-06-17T23:30:39.084Z,15.10
2023-06-17T23:33:05.972Z,15.10
2023-06-17T23:35:32.616Z,15.00
2023-06-17T23:38:00.012Z,15.00
2023-06-17T23:40:26.789Z,14.90
2023-06-17T23:42:53.404Z,14.80
2023-06-17T23:45:20.741Z,14.80
2023-06-17T23:47:47.434Z,14.80
2023-06-17T23:50:14.116Z,14.80
2023-06-17T23:52:40.854Z,14.80
2023-06-17T23:55:07.764Z,14.70
2023-06-17T23:57:34.375Z,14.70
